Terminal Aerodrome Forecast
Issued by NWS

Home | Current Version | Previous Version | Text Only | Print | Product List | Glossary On
Versions: 1 2 3 4 5 6 7 8 9 10 11 12 13
982
FTUS46 KPDT 051721
TAFDLS
TAF
KDLS 051721Z 0518/0618 32011G18KT P6SM SCT080 BKN150
     FM052300 32012G20KT P6SM VCSH SCT060 BKN100
     FM060400 31010KT P6SM BKN100
     FM061400 32005KT P6SM SCT100=

USA.gov is the U.S. government's official web portal to all federal, state and local government web resources and services.